Latest Coastal Weather Observations for Point Fawcett

IDD60701

Issued at 7:25 pm CST Friday 24 October 2014 (issued every 10 minutes, with the page automatically refreshed every 10 minutes)

About coastal observations | Map of coastal stations | Coastal observations for NT | Marine services | Other Formats
Station Details ID: 200731 Name: POINT FAWCETT Lat: -11.76 Lon: 130.03 Height: 6.5 m
Data from the previous 72 hours. | See also: Recent months at Point Fawcett
Date/Time
CST
Temp

°C
Wind Pressure Rain
since 9am
mm
Weather Cloud Vis
km
Sea
Height
m
Swell
Dir
 
Speed
knots
Gust
knots
hPa Trend Height
m
Period
s
Dir
24/07:00pm 28.6 NW 11 14 1010.9 - - - - - - - - -
24/06:30pm 28.8 WNW 11 14 1010.7 - - - - - - - - -
24/06:00pm 29.2 WNW 11 14 1010.4 - - - - - - - - -
24/05:30pm 30.1 NW 11 15 1010.1 - - - - - - - - -
24/05:00pm 30.9 NW 11 14 1010.1 - - - - - - - - -
24/04:30pm 31.7 NW 10 12 1010.2 - - - - - - - - -
24/04:00pm 31.5 NW 11 13 1010.3 - - - - - - - - -
24/03:30pm 32.0 NW 13 16 1010.4 - - - - - - - - -
24/03:00pm 33.1 NNW 12 16 1010.3 - - - - - - - - -
24/02:30pm 34.5 N 7 11 1010.5 - - - - - - - - -
24/02:00pm 33.0 ENE 6 10 1010.7 - - - - - - - - -
24/01:30pm 32.9 SE 8 15 1011.0 - - - - - - - - -
24/01:00pm 33.4 ESE 7 13 1011.5 - - - - - - - - -
24/12:30pm 31.3 ESE 8 13 1012.2 - - - - - - - - -
24/12:00pm 32.3 NNW 6 8 1012.5 - - - - - - - - -
24/11:30am 31.5 W 7 10 1013.0 - - - - - - - - -
24/11:00am 31.7 WSW 6 11 1013.3 - - - - - - - - -
24/10:30am 31.3 N 7 9 1013.6 - - - - - - - - -
24/10:00am 30.7 N 6 7 1013.8 - - - - - - - - -
24/09:30am 29.6 N 5 7 1013.9 - - - - - - - - -
24/09:00am 29.4 NNE 4 6 1014.1 - - - - - - - - -
24/08:30am 29.0 NE 5 7 1014.1 - - - - - - - - -
24/08:00am 27.5 E 5 6 1013.9 - - - - - - - - -
24/07:30am 24.7 ESE 3 5 1013.7 - - - - - - - - -
24/07:00am 22.5 ESE 4 5 1013.5 - - - - - - - - -
24/06:30am 21.9 E 4 5 1013.5 - - - - - - - - -
24/06:00am 23.0 E 4 5 1013.2 - - - - - - - - -
24/05:30am 23.9 E 5 6 1013.0 - - - - - - - - -
24/05:00am 23.6 E 5 8 1012.8 - - - - - - - - -
24/04:30am 23.7 E 5 6 1012.6 - - - - - - - - -
24/04:00am 23.6 ESE 5 7 1012.5 - - - - - - - - -
24/03:30am 23.4 ESE 5 6 1012.3 - - - - - - - - -
24/03:00am 23.8 E 4 5 1012.2 - - - - - - - - -
24/02:30am 23.8 ESE 5 6 1012.7 - - - - - - - - -
24/02:00am 23.3 E 4 5 1012.8 - - - - - - - - -
24/01:30am 23.7 ESE 4 5 1013.2 - - - - - - - - -
24/01:00am 24.1 SE 4 5 1013.2 - - - - - - - - -
24/12:30am 25.8 E 4 5 1013.6 - - - - - - - - -
24/12:00am 27.2 NE 5 8 1013.4 - - - - - - - - -
 
Date/Time
CST
Temp

°C
Wind Pressure Rain
since 9am
mm
Weather Cloud Vis
km
Sea
Height
m
Swell
Dir
 
Speed
knots
Gust
knots
hPa Trend Height
m
Period
s
Dir
23/11:30pm 27.8 NNE 7 10 1013.6 - - - - - - - - -
23/11:00pm 28.2 N 7 9 1013.9 - - - - - - - - -
23/10:30pm 28.2 N 8 11 1013.6 - - - - - - - - -
23/10:00pm 28.4 NNW 7 11 1013.3 - - - - - - - - -
23/09:30pm 28.3 NNW 7 9 1012.8 - - - - - - - - -
23/09:00pm 28.2 NNW 7 11 1012.4 - - - - - - - - -
23/08:30pm 28.1 NNW 7 10 1012.0 - - - - - - - - -
23/08:00pm 28.1 NW 8 10 1011.8 - - - - - - - - -
23/07:30pm 28.1 WNW 8 11 1011.5 - - - - - - - - -
23/07:00pm 28.2 WNW 9 11 1011.2 - - - - - - - - -
23/06:30pm 28.6 WNW 9 11 1010.9 - - - - - - - - -
23/06:00pm 29.4 WNW 9 10 1010.3 - - - - - - - - -
23/05:30pm 29.9 NW 10 13 1010.1 - - - - - - - - -
23/05:00pm 30.7 NW 10 13 1010.0 - - - - - - - - -
23/04:30pm 30.7 WNW 10 12 1010.1 - - - - - - - - -
23/04:00pm 31.0 W 9 13 1010.3 - - - - - - - - -
23/03:30pm 32.1 W 9 13 1010.4 - - - - - - - - -
23/03:00pm 33.2 SW 10 15 1010.2 - - - - - - - - -
23/02:30pm 33.8 S 7 11 1010.4 - - - - - - - - -
23/02:00pm 34.1 SE 7 10 1010.9 - - - - - - - - -
23/01:30pm 32.6 S 8 13 1011.3 - - - - - - - - -
23/01:00pm 32.9 N 5 7 1012.1 - - - - - - - - -
23/12:30pm 32.3 NE 6 17 1012.5 - - - - - - - - -
23/12:00pm 31.0 W 8 13 1012.9 - - - - - - - - -
23/11:30am 31.6 WSW 7 11 1013.4 - - - - - - - - -
23/11:00am 32.4 N 6 9 1013.5 - - - - - - - - -
23/10:00am 31.0 NNE 6 8 1014.2 - - - - - - - - -
23/09:30am 30.3 NNE 6 9 1014.4 - - - - - - - - -
23/09:00am 29.4 NE 6 9 1014.4 - - - - - - - - -
23/08:30am 28.6 ENE 5 7 1014.4 - - - - - - - - -
23/08:00am 27.8 ENE 4 6 1014.1 - - - - - - - - -
23/07:30am 25.8 E 4 5 1013.8 - - - - - - - - -
23/07:00am 23.4 E 4 5 1013.4 - - - - - - - - -
23/06:30am 22.9 E 3 4 1013.2 - - - - - - - - -
23/06:00am 23.9 E 4 5 1013.0 - - - - - - - - -
23/05:30am 24.8 E 5 8 1012.9 - - - - - - - - -
23/05:00am 24.7 E 5 6 1012.5 - - - - - - - - -
23/04:30am 25.2 E 5 7 1012.1 - - - - - - - - -
23/04:00am 25.9 NE 6 9 1012.0 - - - - - - - - -
23/03:30am 25.4 NE 5 7 1011.9 - - - - - - - - -
23/03:00am 24.7 E 4 5 1012.0 - - - - - - - - -
23/02:30am 25.0 E 4 5 1012.3 - - - - - - - - -
23/02:00am 25.9 E 4 6 1012.5 - - - - - - - - -
23/01:30am 26.9 E 5 7 1012.8 - - - - - - - - -
23/01:00am 28.1 N 7 10 1012.9 - - - - - - - - -
23/12:30am 27.7 NE 4 5 1013.1 - - - - - - - - -
23/12:00am 28.1 NE 4 6 1013.6 - - - - - - - - -
 
Date/Time
CST
Temp

°C
Wind Pressure Rain
since 9am
mm
Weather Cloud Vis
km
Sea
Height
m
Swell
Dir
 
Speed
knots
Gust
knots
hPa Trend Height
m
Period
s
Dir
22/11:30pm 28.3 NNW 7 9 1013.5 - - - - - - - - -
22/11:00pm 28.3 NNW 7 9 1013.6 - - - - - - - - -
22/10:30pm 28.1 NNW 8 10 1013.6 - - - - - - - - -
22/10:00pm 28.1 NW 7 9 1013.3 - - - - - - - - -
22/09:30pm 28.1 NW 7 9 1013.2 - - - - - - - - -
22/09:00pm 28.3 NW 6 8 1013.0 - - - - - - - - -
22/08:30pm 28.2 NW 6 9 1012.6 - - - - - - - - -
22/08:00pm 28.2 NNW 7 9 1012.2 - - - - - - - - -
22/07:30pm 28.1 NNW 7 10 1012.0 - - - - - - - - -
22/07:00pm 28.2 NW 8 11 1011.5 - - - - - - - - -
22/06:30pm 28.6 NW 7 10 1011.1 - - - - - - - - -
22/06:00pm 29.5 NW 8 10 1010.7 - - - - - - - - -
22/05:30pm 30.1 WNW 8 10 1010.7 - - - - - - - - -
22/05:00pm 30.8 WNW 8 11 1010.6 - - - - - - - - -
22/04:30pm 30.8 W 8 11 1010.4 - - - - - - - - -
22/04:00pm 31.0 W 8 11 1010.6 - - - - - - - - -
22/03:30pm 32.0 WSW 7 9 1010.7 - - - - - - - - -
22/03:00pm 31.8 WSW 7 10 1010.9 - - - - - - - - -
22/02:30pm 31.9 WSW 8 12 1011.4 - - - - - - - - -
22/02:00pm 31.9 SW 9 13 1012.0 - - - - - - - - -
22/01:30pm 30.5 SW 7 13 1012.6 - - - - - - - - -
22/01:00pm 29.7 SW 7 12 1013.3 - - - - - - - - -
22/12:30pm 29.7 SW 6 9 1013.8 - - - - - - - - -
22/12:00pm 30.2 WNW 6 8 1013.7 - - - - - - - - -
22/11:30am 31.5 NNW 9 12 1013.9 - - - - - - - - -
22/11:00am 32.1 NNW 7 10 1014.1 - - - - - - - - -
22/10:30am 31.5 N 6 8 1014.4 - - - - - - - - -
22/10:00am 31.2 N 6 9 1014.5 - - - - - - - - -
22/09:30am 29.8 N 5 6 1014.9 - - - - - - - - -
22/09:00am 29.0 N 4 5 1014.8 - - - - - - - - -
22/08:30am 28.7 ENE 5 8 1014.7 - - - - - - - - -
22/08:00am 27.9 ENE 4 6 1014.4 - - - - - - - - -
22/07:30am 26.1 NE 5 7 1013.9 - - - - - - - - -
22/07:00am 24.4 ENE 4 6 1014.2 - - - - - - - - -
22/06:30am 24.0 E 5 7 1014.2 - - - - - - - - -
22/06:00am 23.9 E 6 8 1013.8 - - - - - - - - -
22/05:30am 23.5 E 6 9 1013.6 - - - - - - - - -
22/05:00am 22.4 E 5 6 1013.0 - - - - - - - - -
22/04:30am 21.9 E 5 5 1012.6 - - - - - - - - -
22/04:00am 22.3 E 4 5 1012.5 - - - - - - - - -
22/03:30am 22.9 E 4 5 1012.4 - - - - - - - - -
22/03:00am 23.3 ENE 4 5 1012.3 - - - - - - - - -
22/02:30am 24.7 NE 5 7 1012.7 - - - - - - - - -
22/02:00am 25.1 ENE 4 7 1013.0 - - - - - - - - -
22/01:30am 24.6 ENE 4 7 1013.3 - - - - - - - - -
22/01:00am 24.8 E 4 6 1013.9 - - - - - - - - -
22/12:30am 25.6 E 4 5 1014.4 - - - - - - - - -
22/12:00am 26.9 E 4 6 1014.6 - - - - - - - - -
 
Date/Time
CST
Temp

°C
Wind Pressure Rain
since 9am
mm
Weather Cloud Vis
km
Sea
Height
m
Swell
Dir
 
Speed
knots
Gust
knots
hPa Trend Height
m
Period
s
Dir
21/11:30pm 27.7 NE 5 9 1014.8 - - - - - - - - -
21/11:00pm 28.0 N 7 11 1014.9 - - - - - - - - -
21/10:30pm 28.0 N 7 11 1014.7 - - - - - - - - -
21/10:00pm 27.7 N 7 9 1014.4 - - - - - - - - -
21/09:30pm 27.8 N 7 10 1014.0 - - - - - - - - -
21/09:00pm 27.8 N 8 10 1013.5 - - - - - - - - -
21/08:30pm 28.1 NNW 8 10 1013.3 - - - - - - - - -
21/08:00pm 28.1 NNW 8 10 1012.9 - - - - - - - - -
21/07:30pm 28.1 NNW 7 9 1012.7 - - - - - - - - -

Other Formats:

Comma delimited format used in spreadsheet applications
http://www.bom.gov.au/fwo/IDD60701/IDD60701.94122.axf

JavaScript Object Notation format (JSON) in row-major order
http://www.bom.gov.au/fwo/IDD60701/IDD60701.94122.json